sensor_id;sensor_type;location;lat;lon;timestamp;P1;durP1;ratioP1;P2;durP2;ratioP2
75914;SDS011;64593;51.050;13.780;2023-05-16T06:02:09;30.50;;;18.48;;
75914;SDS011;64593;51.050;13.780;2023-05-16T06:07:13;23.65;;;17.05;;
75914;SDS011;64593;51.050;13.780;2023-05-16T06:12:40;28.02;;;17.90;;
75914;SDS011;64593;51.050;13.780;2023-05-16T06:17:42;31.17;;;20.67;;
75914;SDS011;64593;51.050;13.780;2023-05-16T06:22:44;34.78;;;19.58;;
75914;SDS011;64593;51.050;13.780;2023-05-16T06:27:46;35.95;;;21.63;;
75914;SDS011;64593;51.050;13.780;2023-05-16T06:32:48;32.85;;;21.45;;
75914;SDS011;64593;51.050;13.780;2023-05-16T06:37:51;38.70;;;24.60;;
75914;SDS011;64593;51.050;13.780;2023-05-16T06:42:53;41.35;;;24.00;;
75914;SDS011;64593;51.050;13.780;2023-05-16T06:47:55;41.38;;;24.17;;
75914;SDS011;64593;51.050;13.780;2023-05-16T06:53:00;46.20;;;28.27;;
75914;SDS011;64593;51.050;13.780;2023-05-16T06:58:02;46.05;;;26.75;;
75914;SDS011;64593;51.050;13.780;2023-05-16T07:03:06;48.72;;;28.63;;
75914;SDS011;64593;51.050;13.780;2023-05-16T07:08:10;39.75;;;24.40;;
75914;SDS011;64593;51.050;13.780;2023-05-16T07:13:12;42.50;;;23.75;;
75914;SDS011;64593;51.050;13.780;2023-05-16T07:18:19;31.33;;;20.92;;
75914;SDS011;64593;51.050;13.780;2023-05-16T07:23:25;31.25;;;19.63;;
75914;SDS011;64593;51.050;13.780;2023-05-16T07:28:29;26.63;;;16.40;;
75914;SDS011;64593;51.050;13.780;2023-05-16T07:33:34;24.67;;;18.10;;
75914;SDS011;64593;51.050;13.780;2023-05-16T07:38:40;24.85;;;16.60;;
75914;SDS011;64593;51.050;13.780;2023-05-16T07:43:41;25.10;;;17.10;;
75914;SDS011;64593;51.050;13.780;2023-05-16T07:48:49;25.02;;;15.73;;
75914;SDS011;64593;51.050;13.780;2023-05-16T07:53:51;25.63;;;17.83;;
75914;SDS011;64593;51.050;13.780;2023-05-16T07:58:53;25.40;;;15.15;;
75914;SDS011;64593;51.050;13.780;2023-05-16T08:03:55;21.65;;;15.27;;
75914;SDS011;64593;51.050;13.780;2023-05-16T08:08:57;21.58;;;14.35;;
75914;SDS011;64593;51.050;13.780;2023-05-16T08:14:04;22.48;;;13.88;;
75914;SDS011;64593;51.050;13.780;2023-05-16T08:19:11;24.13;;;13.32;;
75914;SDS011;64593;51.050;13.780;2023-05-16T08:24:13;20.33;;;13.13;;
75914;SDS011;64593;51.050;13.780;2023-05-16T08:29:16;16.67;;;12.82;;
75914;SDS011;64593;51.050;13.780;2023-05-16T08:34:24;19.30;;;12.43;;
75914;SDS011;64593;51.050;13.780;2023-05-16T08:39:28;19.92;;;13.35;;
75914;SDS011;64593;51.050;13.780;2023-05-16T08:44:31;19.40;;;11.75;;
75914;SDS011;64593;51.050;13.780;2023-05-16T08:49:58;19.90;;;12.50;;
75914;SDS011;64593;51.050;13.780;2023-05-16T08:55:26;14.88;;;10.25;;
75914;SDS011;64593;51.050;13.780;2023-05-16T09:00:32;19.35;;;11.15;;
75914;SDS011;64593;51.050;13.780;2023-05-16T09:05:36;17.83;;;11.35;;
75914;SDS011;64593;51.050;13.780;2023-05-16T09:11:04;21.15;;;11.60;;
75914;SDS011;64593;51.050;13.780;2023-05-16T09:16:14;18.33;;;10.20;;
75914;SDS011;64593;51.050;13.780;2023-05-16T09:21:20;19.83;;;10.43;;
75914;SDS011;64593;51.050;13.780;2023-05-16T09:26:25;19.60;;;11.32;;
75914;SDS011;64593;51.050;13.780;2023-05-16T09:31:27;16.17;;;10.10;;
75914;SDS011;64593;51.050;13.780;2023-05-16T09:37:02;14.65;;;10.13;;
75914;SDS011;64593;51.050;13.780;2023-05-16T09:42:10;14.98;;;10.02;;
75914;SDS011;64593;51.050;13.780;2023-05-16T09:47:13;15.32;;;9.43;;
75914;SDS011;64593;51.050;13.780;2023-05-16T09:52:19;19.05;;;10.57;;
75914;SDS011;64593;51.050;13.780;2023-05-16T09:57:24;19.27;;;9.95;;
75914;SDS011;64593;51.050;13.780;2023-05-16T10:02:27;21.92;;;10.52;;
75914;SDS011;64593;51.050;13.780;2023-05-16T10:07:32;14.38;;;10.02;;
75914;SDS011;64593;51.050;13.780;2023-05-16T10:12:36;18.65;;;9.65;;
75914;SDS011;64593;51.050;13.780;2023-05-16T10:18:03;15.80;;;9.02;;
75914;SDS011;64593;51.050;13.780;2023-05-16T10:23:13;15.55;;;9.32;;
75914;SDS011;64593;51.050;13.780;2023-05-16T10:28:18;16.02;;;8.20;;
75914;SDS011;64593;51.050;13.780;2023-05-16T10:33:24;14.23;;;8.80;;
75914;SDS011;64593;51.050;13.780;2023-05-16T10:38:26;13.48;;;8.43;;
75914;SDS011;64593;51.050;13.780;2023-05-16T10:43:57;11.98;;;8.23;;
75914;SDS011;64593;51.050;13.780;2023-05-16T10:48:59;11.90;;;8.48;;
75914;SDS011;64593;51.050;13.780;2023-05-16T10:54:20;16.27;;;7.97;;
75914;SDS011;64593;51.050;13.780;2023-05-16T10:59:59;14.35;;;7.35;;
75914;SDS011;64593;51.050;13.780;2023-05-16T11:05:03;15.27;;;6.15;;
75914;SDS011;64593;51.050;13.780;2023-05-16T11:10:31;14.82;;;6.18;;
75914;SDS011;64593;51.050;13.780;2023-05-16T11:15:33;11.52;;;6.35;;
75914;SDS011;64593;51.050;13.780;2023-05-16T11:21:02;10.55;;;5.22;;
75914;SDS011;64593;51.050;13.780;2023-05-16T11:26:05;11.43;;;5.30;;
75914;SDS011;64593;51.050;13.780;2023-05-16T11:31:07;10.35;;;5.22;;
75914;SDS011;64593;51.050;13.780;2023-05-16T11:36:14;8.15;;;4.68;;
75914;SDS011;64593;51.050;13.780;2023-05-16T11:41:41;7.80;;;4.97;;
75914;SDS011;64593;51.050;13.780;2023-05-16T11:46:43;9.95;;;4.50;;
75914;SDS011;64593;51.050;13.780;2023-05-16T11:52:12;7.35;;;3.78;;
75914;SDS011;64593;51.050;13.780;2023-05-16T11:57:59;8.20;;;4.22;;
75914;SDS011;64593;51.050;13.780;2023-05-16T12:03:26;7.57;;;4.53;;
75914;SDS011;64593;51.050;13.780;2023-05-16T12:08:29;7.88;;;4.05;;
75914;SDS011;64593;51.050;13.780;2023-05-16T12:13:31;8.75;;;4.30;;
75914;SDS011;64593;51.050;13.780;2023-05-16T12:18:37;8.43;;;4.75;;
75914;SDS011;64593;51.050;13.780;2023-05-16T12:23:43;7.40;;;4.50;;
75914;SDS011;64593;51.050;13.780;2023-05-16T12:29:10;5.65;;;3.95;;
75914;SDS011;64593;51.050;13.780;2023-05-16T12:34:37;7.35;;;4.00;;
75914;SDS011;64593;51.050;13.780;2023-05-16T12:40:05;7.25;;;4.03;;
75914;SDS011;64593;51.050;13.780;2023-05-16T12:45:34;7.15;;;3.50;;
75914;SDS011;64593;51.050;13.780;2023-05-16T12:51:14;5.78;;;3.47;;
75914;SDS011;64593;51.050;13.780;2023-05-16T12:56:42;8.82;;;3.83;;
75914;SDS011;64593;51.050;13.780;2023-05-16T13:01:45;8.38;;;3.53;;
75914;SDS011;64593;51.050;13.780;2023-05-16T13:06:49;7.00;;;3.55;;
75914;SDS011;64593;51.050;13.780;2023-05-16T13:11:55;6.32;;;3.60;;
75914;SDS011;64593;51.050;13.780;2023-05-16T13:17:21;8.85;;;3.60;;
75914;SDS011;64593;51.050;13.780;2023-05-16T13:22:28;6.13;;;3.50;;
75914;SDS011;64593;51.050;13.780;2023-05-16T13:27:30;7.38;;;3.08;;
75914;SDS011;64593;51.050;13.780;2023-05-16T13:32:33;7.15;;;3.15;;
75914;SDS011;64593;51.050;13.780;2023-05-16T13:37:35;9.07;;;3.42;;
75914;SDS011;64593;51.050;13.780;2023-05-16T13:43:02;8.55;;;2.78;;
75914;SDS011;64593;51.050;13.780;2023-05-16T13:48:07;4.82;;;2.70;;
75914;SDS011;64593;51.050;13.780;2023-05-16T13:53:09;6.00;;;2.78;;
75914;SDS011;64593;51.050;13.780;2023-05-16T13:58:36;3.80;;;2.53;;
75914;SDS011;64593;51.050;13.780;2023-05-16T14:03:52;6.82;;;3.10;;
75914;SDS011;64593;51.050;13.780;2023-05-16T14:08:59;7.65;;;3.03;;
75914;SDS011;64593;51.050;13.780;2023-05-16T14:14:25;5.05;;;2.80;;
75914;SDS011;64593;51.050;13.780;2023-05-16T14:19:27;7.80;;;2.63;;
75914;SDS011;64593;51.050;13.780;2023-05-16T14:24:30;8.45;;;2.72;;
75914;SDS011;64593;51.050;13.780;2023-05-16T14:29:34;7.50;;;2.10;;
75914;SDS011;64593;51.050;13.780;2023-05-16T14:34:38;6.43;;;2.70;;
75914;SDS011;64593;51.050;13.780;2023-05-16T14:39:41;7.22;;;2.80;;
75914;SDS011;64593;51.050;13.780;2023-05-16T14:45:09;6.72;;;2.33;;
75914;SDS011;64593;51.050;13.780;2023-05-16T14:50:11;7.65;;;2.42;;
75914;SDS011;64593;51.050;13.780;2023-05-16T14:55:38;7.60;;;2.95;;
75914;SDS011;64593;51.050;13.780;2023-05-16T15:00:40;4.68;;;2.45;;
75914;SDS011;64593;51.050;13.780;2023-05-16T15:05:43;11.25;;;2.35;;
75914;SDS011;64593;51.050;13.780;2023-05-16T15:10:45;11.73;;;2.22;;
75914;SDS011;64593;51.050;13.780;2023-05-16T15:15:47;13.05;;;2.35;;
75914;SDS011;64593;51.050;13.780;2023-05-16T15:20:49;8.48;;;2.15;;
75914;SDS011;64593;51.050;13.780;2023-05-16T15:25:53;7.65;;;1.90;;
75914;SDS011;64593;51.050;13.780;2023-05-16T15:30:55;4.63;;;1.92;;
75914;SDS011;64593;51.050;13.780;2023-05-16T15:35:57;9.63;;;2.40;;
75914;SDS011;64593;51.050;13.780;2023-05-16T15:41:02;9.35;;;2.10;;
75914;SDS011;64593;51.050;13.780;2023-05-16T15:46:22;9.60;;;2.17;;
75914;SDS011;64593;51.050;13.780;2023-05-16T15:51:24;5.50;;;2.22;;
75914;SDS011;64593;51.050;13.780;2023-05-16T15:56:50;7.57;;;2.00;;
75914;SDS011;64593;51.050;13.780;2023-05-16T16:01:52;6.50;;;1.80;;
75914;SDS011;64593;51.050;13.780;2023-05-16T16:06:54;6.10;;;1.90;;
75914;SDS011;64593;51.050;13.780;2023-05-16T16:11:56;7.03;;;1.77;;
75914;SDS011;64593;51.050;13.780;2023-05-16T16:17:02;9.70;;;2.47;;
75914;SDS011;64593;51.050;13.780;2023-05-16T16:22:11;4.40;;;1.52;;
75914;SDS011;64593;51.050;13.780;2023-05-16T16:27:13;5.93;;;1.73;;
75914;SDS011;64593;51.050;13.780;2023-05-16T16:32:40;8.32;;;2.13;;
75914;SDS011;64593;51.050;13.780;2023-05-16T16:38:07;11.35;;;1.80;;
75914;SDS011;64593;51.050;13.780;2023-05-16T16:43:17;9.25;;;1.77;;
75914;SDS011;64593;51.050;13.780;2023-05-16T16:48:44;6.72;;;1.40;;
75914;SDS011;64593;51.050;13.780;2023-05-16T16:53:48;8.30;;;2.08;;
75914;SDS011;64593;51.050;13.780;2023-05-16T16:59:14;6.28;;;1.40;;
75914;SDS011;64593;51.050;13.780;2023-05-16T17:04:41;6.25;;;1.50;;
75914;SDS011;64593;51.050;13.780;2023-05-16T17:09:45;6.82;;;1.75;;
75914;SDS011;64593;51.050;13.780;2023-05-16T17:14:48;7.75;;;1.50;;
75914;SDS011;64593;51.050;13.780;2023-05-16T17:20:20;7.90;;;1.40;;
75914;SDS011;64593;51.050;13.780;2023-05-16T17:25:58;7.50;;;1.58;;
75914;SDS011;64593;51.050;13.780;2023-05-16T17:31:24;7.60;;;1.50;;
75914;SDS011;64593;51.050;13.780;2023-05-16T17:36:51;8.75;;;1.52;;
75914;SDS011;64593;51.050;13.780;2023-05-16T17:42:18;5.43;;;1.80;;
75914;SDS011;64593;51.050;13.780;2023-05-16T17:47:45;8.63;;;2.50;;
75914;SDS011;64593;51.050;13.780;2023-05-16T17:53:20;7.55;;;1.75;;
75914;SDS011;64593;51.050;13.780;2023-05-16T17:58:47;7.53;;;1.58;;
75914;SDS011;64593;51.050;13.780;2023-05-16T18:04:14;7.93;;;1.75;;
75914;SDS011;64593;51.050;13.780;2023-05-16T18:09:18;11.05;;;2.03;;
75914;SDS011;64593;51.050;13.780;2023-05-16T18:14:21;11.57;;;1.85;;
75914;SDS011;64593;51.050;13.780;2023-05-16T18:19:22;16.13;;;1.67;;
75914;SDS011;64593;51.050;13.780;2023-05-16T18:24:24;9.30;;;1.73;;
75914;SDS011;64593;51.050;13.780;2023-05-16T18:29:26;10.88;;;1.83;;
75914;SDS011;64593;51.050;13.780;2023-05-16T18:34:28;8.68;;;1.80;;
75914;SDS011;64593;51.050;13.780;2023-05-16T18:39:30;11.18;;;2.10;;
75914;SDS011;64593;51.050;13.780;2023-05-16T18:44:32;10.25;;;2.25;;
75914;SDS011;64593;51.050;13.780;2023-05-16T18:49:34;9.35;;;1.73;;
75914;SDS011;64593;51.050;13.780;2023-05-16T18:54:39;9.32;;;1.90;;
75914;SDS011;64593;51.050;13.780;2023-05-16T18:59:41;11.25;;;2.35;;
75914;SDS011;64593;51.050;13.780;2023-05-16T19:04:44;8.07;;;1.95;;
75914;SDS011;64593;51.050;13.780;2023-05-16T19:09:46;8.65;;;2.15;;
75914;SDS011;64593;51.050;13.780;2023-05-16T19:15:14;6.30;;;2.05;;
75914;SDS011;64593;51.050;13.780;2023-05-16T19:20:22;11.13;;;2.50;;
75914;SDS011;64593;51.050;13.780;2023-05-16T19:25:52;12.70;;;2.65;;
75914;SDS011;64593;51.050;13.780;2023-05-16T19:30:54;9.70;;;2.17;;
75914;SDS011;64593;51.050;13.780;2023-05-16T19:36:21;7.40;;;2.60;;
75914;SDS011;64593;51.050;13.780;2023-05-16T19:41:49;12.85;;;2.53;;
75914;SDS011;64593;51.050;13.780;2023-05-16T19:46:52;13.82;;;3.58;;
75914;SDS011;64593;51.050;13.780;2023-05-16T19:51:54;10.75;;;2.70;;
75914;SDS011;64593;51.050;13.780;2023-05-16T19:57:21;10.80;;;2.47;;
75914;SDS011;64593;51.050;13.780;2023-05-16T20:02:48;8.48;;;2.80;;
75914;SDS011;64593;51.050;13.780;2023-05-16T20:07:52;10.75;;;3.22;;
75914;SDS011;64593;51.050;13.780;2023-05-16T20:13:20;13.32;;;3.50;;
75914;SDS011;64593;51.050;13.780;2023-05-16T20:18:23;10.13;;;3.75;;
75914;SDS011;64593;51.050;13.780;2023-05-16T20:23:26;11.00;;;2.90;;
75914;SDS011;64593;51.050;13.780;2023-05-16T20:28:53;10.45;;;2.53;;
75914;SDS011;64593;51.050;13.780;2023-05-16T20:34:20;14.52;;;2.83;;
75914;SDS011;64593;51.050;13.780;2023-05-16T20:39:23;5.25;;;1.80;;
75914;SDS011;64593;51.050;13.780;2023-05-16T20:45:10;7.05;;;2.00;;
75914;SDS011;64593;51.050;13.780;2023-05-16T20:50:12;7.90;;;2.05;;
75914;SDS011;64593;51.050;13.780;2023-05-16T20:55:40;7.45;;;1.60;;
75914;SDS011;64593;51.050;13.780;2023-05-16T21:00:42;6.15;;;1.52;;
75914;SDS011;64593;51.050;13.780;2023-05-16T21:05:44;9.07;;;1.65;;
75914;SDS011;64593;51.050;13.780;2023-05-16T21:11:10;10.65;;;1.48;;
75914;SDS011;64593;51.050;13.780;2023-05-16T21:16:37;10.80;;;1.85;;
75914;SDS011;64593;51.050;13.780;2023-05-16T21:21:39;10.02;;;1.80;;
75914;SDS011;64593;51.050;13.780;2023-05-16T21:27:08;6.85;;;2.05;;
75914;SDS011;64593;51.050;13.780;2023-05-16T21:32:10;8.30;;;1.77;;
75914;SDS011;64593;51.050;13.780;2023-05-16T21:37:16;6.07;;;1.52;;
75914;SDS011;64593;51.050;13.780;2023-05-16T21:42:18;8.55;;;1.23;;
75914;SDS011;64593;51.050;13.780;2023-05-16T21:47:21;3.00;;;1.20;;
75914;SDS011;64593;51.050;13.780;2023-05-16T21:52:48;3.63;;;1.67;;
75914;SDS011;64593;51.050;13.780;2023-05-16T21:57:50;6.78;;;1.75;;
